createdAt,value
2022-12-06T00:02:01.380Z,29.60
2022-12-06T00:04:38.868Z,29.48
2022-12-06T00:07:11.597Z,29.33
2022-12-06T00:09:44.682Z,29.26
2022-12-06T00:12:15.851Z,29.30
2022-12-06T00:14:46.538Z,29.17
2022-12-06T00:17:25.308Z,29.18
2022-12-06T00:20:03.302Z,29.10
2022-12-06T00:22:39.157Z,29.01
2022-12-06T00:25:10.691Z,28.91
2022-12-06T00:27:43.082Z,28.88
2022-12-06T00:30:15.096Z,28.88
2022-12-06T00:32:45.397Z,29.81
2022-12-06T00:35:21.022Z,29.40
2022-12-06T00:37:56.850Z,29.70
2022-12-06T00:40:30.939Z,29.89
2022-12-06T00:43:03.950Z,28.78
2022-12-06T00:45:36.851Z,28.54
2022-12-06T00:48:08.359Z,28.51
2022-12-06T00:50:40.546Z,29.14
2022-12-06T00:53:15.161Z,28.33
2022-12-06T00:55:46.900Z,28.70
2022-12-06T00:58:18.952Z,28.81
2022-12-06T01:00:49.171Z,29.01
2022-12-06T01:03:20.597Z,28.56
2022-12-06T01:05:52.940Z,28.48
2022-12-06T01:11:19.896Z,28.39
2022-12-06T01:14:01.132Z,28.33
2022-12-06T01:16:35.336Z,28.32
2022-12-06T01:19:14.407Z,28.23
2022-12-06T01:21:47.220Z,28.16
2022-12-06T01:24:16.986Z,28.10
2022-12-06T01:26:48.019Z,28.07
2022-12-06T01:29:16.908Z,28.05
2022-12-06T01:31:47.776Z,28.04
2022-12-06T01:34:19.512Z,27.99
2022-12-06T01:36:52.398Z,27.94
2022-12-06T01:39:35.351Z,27.89
2022-12-06T01:42:07.306Z,27.84
2022-12-06T01:44:53.586Z,27.94
2022-12-06T01:47:47.448Z,27.99
2022-12-06T01:50:39.119Z,28.02
2022-12-06T01:53:25.300Z,27.95
2022-12-06T01:56:07.279Z,27.78
2022-12-06T01:58:47.001Z,27.81
2022-12-06T02:01:23.906Z,27.77
2022-12-06T02:04:07.175Z,27.79
2022-12-06T02:06:42.596Z,27.75
2022-12-06T02:09:18.293Z,27.73
2022-12-06T02:11:59.271Z,27.72
2022-12-06T02:14:41.402Z,27.78
2022-12-06T02:17:47.371Z,27.90
2022-12-06T02:20:23.238Z,27.70
2022-12-06T02:23:12.344Z,27.54
2022-12-06T02:39:12.136Z,27.91
2022-12-06T02:43:53.488Z,27.83
2022-12-06T02:52:18.584Z,27.68
2022-12-06T03:00:23.622Z,27.66
2022-12-06T03:08:23.107Z,27.43
2022-12-06T03:11:32.192Z,27.36
2022-12-06T03:19:24.832Z,27.49
2022-12-06T03:22:11.101Z,27.36
2022-12-06T03:24:47.007Z,27.14
2022-12-06T03:27:22.512Z,27.03
2022-12-06T03:30:00.737Z,26.99
2022-12-06T03:32:35.153Z,26.98
2022-12-06T03:35:48.173Z,26.95
2022-12-06T03:38:27.428Z,26.95
2022-12-06T03:41:13.165Z,26.91
2022-12-06T03:43:54.867Z,26.94
2022-12-06T03:46:37.174Z,27.00
2022-12-06T03:49:30.883Z,27.10
2022-12-06T03:52:04.289Z,27.15
2022-12-06T03:54:47.698Z,27.08
2022-12-06T03:57:44.185Z,27.53
2022-12-06T04:26:13.880Z,27.63
2022-12-06T04:32:35.770Z,27.18
2022-12-06T04:35:59.839Z,27.16
2022-12-06T04:39:20.594Z,27.16
2022-12-06T04:46:13.532Z,27.22
2022-12-06T04:49:06.973Z,27.13
2022-12-06T04:52:52.877Z,27.30
2022-12-06T04:55:46.879Z,27.26
2022-12-06T05:05:10.735Z,27.39
2022-12-06T05:08:29.092Z,27.72
2022-12-06T05:11:08.826Z,27.58
2022-12-06T05:13:52.135Z,27.50
2022-12-06T05:16:52.341Z,27.46
2022-12-06T05:24:10.611Z,27.66
2022-12-06T05:36:49.365Z,27.71
2022-12-06T05:39:24.512Z,27.64
2022-12-06T05:42:27.089Z,27.52
2022-12-06T05:45:09.609Z,27.46
2022-12-06T05:47:42.825Z,27.33
2022-12-06T05:50:36.287Z,27.23
2022-12-06T05:54:57.826Z,27.55
2022-12-06T05:58:15.209Z,27.48
2022-12-06T06:01:16.658Z,27.52
2022-12-06T06:04:00.797Z,27.52
2022-12-06T06:06:39.954Z,27.46
2022-12-06T06:09:22.998Z,27.47
2022-12-06T06:12:05.785Z,27.52
2022-12-06T06:16:25.263Z,27.71
2022-12-06T06:23:41.810Z,27.93
2022-12-06T06:26:23.641Z,27.74
2022-12-06T06:28:55.136Z,27.58
2022-12-06T06:31:49.566Z,27.53
2022-12-06T06:34:42.978Z,27.48
2022-12-06T06:37:26.436Z,27.57
2022-12-06T06:41:42.835Z,27.72
2022-12-06T06:44:19.361Z,27.51
2022-12-06T06:46:49.567Z,27.38
2022-12-06T06:49:36.239Z,27.32
2022-12-06T06:56:51.598Z,27.56
2022-12-06T06:59:28.875Z,27.33
2022-12-06T07:02:07.963Z,27.35
2022-12-06T07:04:43.434Z,27.33
2022-12-06T07:07:20.783Z,27.32
2022-12-06T07:10:32.851Z,27.56
2022-12-06T07:13:04.918Z,27.48
2022-12-06T07:15:47.130Z,27.48
2022-12-06T07:18:32.695Z,27.60
2022-12-06T07:21:13.229Z,27.61
2022-12-06T07:23:49.674Z,27.57
2022-12-06T07:26:25.005Z,27.42
2022-12-06T07:29:12.683Z,27.49
2022-12-06T07:31:51.090Z,27.44
2022-12-06T07:34:22.601Z,27.54
2022-12-06T07:37:06.152Z,27.53
2022-12-06T07:40:13.740Z,27.83
2022-12-06T07:43:24.616Z,27.72
2022-12-06T07:52:09.049Z,28.37
2022-12-06T07:54:52.784Z,28.05
2022-12-06T07:58:40.902Z,28.38
2022-12-06T08:01:49.003Z,28.39
2022-12-06T08:19:45.714Z,28.61
2022-12-06T08:31:12.603Z,28.47
2022-12-06T08:33:47.118Z,28.24
2022-12-06T08:36:30.901Z,28.16
2022-12-06T08:39:04.440Z,28.17
2022-12-06T08:41:53.104Z,28.19
2022-12-06T08:44:33.342Z,28.22
2022-12-06T08:47:15.971Z,28.26
2022-12-06T08:49:54.508Z,28.26
2022-12-06T08:52:32.857Z,28.32
2022-12-06T08:55:03.290Z,28.48
2022-12-06T08:57:41.176Z,28.45
2022-12-06T09:00:35.339Z,28.60
2022-12-06T09:03:05.770Z,28.58
2022-12-06T09:05:41.355Z,28.58
2022-12-06T09:08:16.980Z,28.62
2022-12-06T09:10:54.488Z,28.70
2022-12-06T09:13:26.774Z,28.77
2022-12-06T09:32:36.364Z,29.54
2022-12-06T09:36:00.656Z,29.50
2022-12-06T09:38:44.956Z,29.44
2022-12-06T09:41:47.465Z,29.39
2022-12-06T09:44:50.699Z,29.49
2022-12-06T09:52:03.194Z,29.58
2022-12-06T09:55:12.600Z,29.58
2022-12-06T09:57:49.364Z,29.60
2022-12-06T10:00:25.257Z,29.57
2022-12-06T10:03:12.959Z,29.50
2022-12-06T10:06:20.467Z,29.73
2022-12-06T10:09:15.319Z,29.64
2022-12-06T10:12:10.587Z,29.75
2022-12-06T10:14:45.366Z,29.81
2022-12-06T10:17:43.936Z,29.79
2022-12-06T10:20:32.050Z,29.88
2022-12-06T10:23:23.619Z,29.84
2022-12-06T10:26:08.654Z,29.78
2022-12-06T10:29:09.149Z,29.87
2022-12-06T10:31:45.423Z,29.88
2022-12-06T10:34:22.886Z,29.96
2022-12-06T10:36:55.210Z,30.05
2022-12-06T10:39:53.220Z,30.16
2022-12-06T10:42:40.085Z,30.29
2022-12-06T10:45:37.040Z,30.32
2022-12-06T10:48:16.746Z,30.26
2022-12-06T10:50:58.819Z,30.18
2022-12-06T10:53:40.509Z,30.15
2022-12-06T10:56:48.721Z,30.23
2022-12-06T10:59:30.920Z,30.39
2022-12-06T11:02:04.604Z,30.35
2022-12-06T11:04:38.150Z,30.39
2022-12-06T11:07:18.814Z,30.37
2022-12-06T11:09:52.830Z,30.39
2022-12-06T11:12:32.857Z,30.49
2022-12-06T11:15:25.105Z,30.61
2022-12-06T11:18:16.211Z,30.53
2022-12-06T11:21:01.281Z,30.52
2022-12-06T11:24:16.820Z,30.91
2022-12-06T11:27:05.206Z,30.88
2022-12-06T11:29:36.060Z,30.86
2022-12-06T11:32:09.628Z,30.74
2022-12-06T11:34:54.920Z,30.80
2022-12-06T11:37:26.011Z,31.71
2022-12-06T11:40:08.811Z,31.14
2022-12-06T11:42:38.932Z,30.89
2022-12-06T11:45:31.038Z,30.90
2022-12-06T11:48:05.178Z,31.07
2022-12-06T11:50:37.427Z,31.15
2022-12-06T11:53:21.235Z,31.05
2022-12-06T11:55:54.925Z,31.04
2022-12-06T11:58:52.442Z,31.31
2022-12-06T12:01:21.686Z,31.23
2022-12-06T12:03:51.910Z,31.23
2022-12-06T12:06:35.487Z,32.21
2022-12-06T12:09:10.933Z,32.41
2022-12-06T12:11:46.671Z,32.55
2022-12-06T12:14:29.936Z,32.58
2022-12-06T12:17:04.895Z,31.78
2022-12-06T12:19:41.319Z,31.59
2022-12-06T12:22:37.136Z,31.70
2022-12-06T12:25:24.884Z,32.64
2022-12-06T12:28:03.053Z,32.31
2022-12-06T12:30:36.119Z,31.91
2022-12-06T12:33:15.196Z,31.83
2022-12-06T12:35:49.165Z,31.80
2022-12-06T12:38:30.290Z,31.93
2022-12-06T12:41:03.322Z,31.88
2022-12-06T12:43:36.822Z,31.86
2022-12-06T12:46:09.548Z,31.93
2022-12-06T12:48:43.667Z,31.81
2022-12-06T12:51:24.841Z,31.84
2022-12-06T12:54:03.068Z,31.84
2022-12-06T12:56:37.797Z,31.81
2022-12-06T12:59:16.197Z,32.00
2022-12-06T13:01:57.190Z,32.05
2022-12-06T13:04:44.521Z,32.06
2022-12-06T13:07:44.974Z,32.08
2022-12-06T13:10:22.065Z,32.20
2022-12-06T13:12:59.829Z,32.15
2022-12-06T13:15:48.908Z,32.37
2022-12-06T13:18:42.008Z,32.29
2022-12-06T13:21:44.036Z,32.58
2022-12-06T13:24:12.897Z,32.45
2022-12-06T13:27:22.321Z,32.62
2022-12-06T13:30:04.118Z,32.61
2022-12-06T13:32:45.492Z,32.63
2022-12-06T13:35:32.496Z,32.60
2022-12-06T13:38:26.815Z,32.76
2022-12-06T13:41:00.671Z,32.75
2022-12-06T13:43:35.098Z,32.65
2022-12-06T13:46:23.135Z,32.63
2022-12-06T13:48:56.836Z,32.64
2022-12-06T13:51:36.216Z,32.69
2022-12-06T13:54:05.047Z,32.66
2022-12-06T13:56:34.703Z,32.65
2022-12-06T13:59:04.685Z,32.99
2022-12-06T14:01:46.983Z,32.80
2022-12-06T14:09:20.117Z,33.29
2022-12-06T14:11:49.620Z,33.07
2022-12-06T14:14:24.800Z,33.02
2022-12-06T14:17:01.414Z,33.00
2022-12-06T14:19:40.490Z,34.17
2022-12-06T14:22:34.599Z,33.62
2022-12-06T14:25:08.865Z,33.34
2022-12-06T14:27:46.839Z,33.27
2022-12-06T14:30:25.525Z,33.23
2022-12-06T14:33:00.419Z,33.26
2022-12-06T14:35:39.173Z,33.30
2022-12-06T14:38:33.209Z,33.51
2022-12-06T14:41:21.328Z,33.55
2022-12-06T14:43:50.998Z,33.56
2022-12-06T14:46:23.084Z,33.50
2022-12-06T14:49:11.974Z,33.55
2022-12-06T14:51:41.792Z,34.02
2022-12-06T14:54:30.561Z,33.77
2022-12-06T14:57:00.326Z,33.80
2022-12-06T15:00:13.615Z,33.73
2022-12-06T15:02:30.701Z,33.98
2022-12-06T15:05:02.934Z,34.15
2022-12-06T15:07:43.073Z,33.99
2022-12-06T15:10:30.749Z,34.14
2022-12-06T15:13:20.527Z,34.25
2022-12-06T15:16:00.974Z,34.18
2022-12-06T15:18:34.936Z,34.14
2022-12-06T15:21:11.925Z,34.13
2022-12-06T15:23:52.517Z,34.14
2022-12-06T15:26:24.706Z,34.18
2022-12-06T15:28:58.921Z,34.18
2022-12-06T15:31:32.417Z,34.22
2022-12-06T15:34:02.485Z,34.22
2022-12-06T15:36:38.608Z,34.24
2022-12-06T15:39:08.583Z,34.31
2022-12-06T15:41:39.913Z,34.32
2022-12-06T15:44:18.959Z,34.40
2022-12-06T15:46:48.896Z,34.49
2022-12-06T15:49:23.070Z,34.43
2022-12-06T15:51:52.795Z,34.49
2022-12-06T15:54:34.799Z,34.56
2022-12-06T15:57:04.242Z,34.67
2022-12-06T15:59:37.010Z,34.71
2022-12-06T16:02:24.280Z,34.96
2022-12-06T16:04:58.797Z,34.93
2022-12-06T16:07:39.396Z,34.91
2022-12-06T16:10:11.134Z,35.19
2022-12-06T16:13:00.204Z,35.19
2022-12-06T16:15:35.671Z,35.36
2022-12-06T16:18:05.447Z,35.40
2022-12-06T16:20:36.267Z,35.35
2022-12-06T16:23:56.547Z,35.24
2022-12-06T16:26:24.170Z,35.70
2022-12-06T16:28:53.138Z,35.64
2022-12-06T16:31:23.033Z,35.68
2022-12-06T16:33:52.745Z,35.67
2022-12-06T16:36:26.086Z,35.65
2022-12-06T16:39:00.528Z,36.69
2022-12-06T16:41:34.695Z,36.98
2022-12-06T16:44:16.569Z,36.88
2022-12-06T16:46:46.827Z,36.87
2022-12-06T16:49:45.197Z,36.01
2022-12-06T16:52:13.019Z,35.87
2022-12-06T16:54:44.112Z,35.77
2022-12-06T16:57:20.648Z,35.93
2022-12-06T16:59:51.531Z,36.08
2022-12-06T17:02:30.888Z,36.11
2022-12-06T17:05:07.261Z,36.11
2022-12-06T17:07:37.416Z,36.18
2022-12-06T17:10:08.548Z,36.13
2022-12-06T17:12:36.890Z,36.11
2022-12-06T17:15:08.211Z,36.03
2022-12-06T17:17:37.310Z,36.04
2022-12-06T17:20:10.650Z,36.03
2022-12-06T17:22:40.645Z,36.21
2022-12-06T17:25:12.883Z,36.16
2022-12-06T17:27:43.014Z,36.28
2022-12-06T17:30:20.565Z,36.43
2022-12-06T17:32:50.622Z,36.47
2022-12-06T17:35:22.925Z,36.56
2022-12-06T17:37:52.425Z,36.49
2022-12-06T17:40:20.884Z,36.56
2022-12-06T17:43:02.730Z,36.46
2022-12-06T17:45:32.335Z,36.56
2022-12-06T17:48:01.317Z,36.55
2022-12-06T17:50:31.376Z,36.48
2022-12-06T17:53:00.523Z,36.47
2022-12-06T17:55:30.568Z,36.51
2022-12-06T17:58:00.136Z,36.68
2022-12-06T18:00:29.885Z,36.73
2022-12-06T18:02:59.637Z,36.84
2022-12-06T18:05:34.505Z,36.95
2022-12-06T18:08:04.175Z,37.00
2022-12-06T18:10:32.977Z,37.04
2022-12-06T18:13:03.006Z,37.17
2022-12-06T18:15:38.992Z,37.29
2022-12-06T18:18:08.292Z,37.81
2022-12-06T18:20:42.988Z,37.32
2022-12-06T18:23:13.139Z,37.28
2022-12-06T18:25:44.858Z,37.26
2022-12-06T18:28:15.006Z,37.29
2022-12-06T18:30:44.716Z,37.28
2022-12-06T18:33:19.046Z,37.34
2022-12-06T18:35:52.891Z,37.44
2022-12-06T18:38:22.173Z,37.50
2022-12-06T18:40:52.196Z,37.61
2022-12-06T18:43:21.015Z,37.56
2022-12-06T18:45:50.841Z,37.67
2022-12-06T18:48:20.274Z,37.77
2022-12-06T18:50:49.203Z,37.81
2022-12-06T18:53:19.970Z,37.90
2022-12-06T18:55:51.567Z,38.01
2022-12-06T18:58:20.714Z,38.07
2022-12-06T19:00:49.295Z,38.14
2022-12-06T19:03:19.136Z,38.22
2022-12-06T19:06:02.500Z,38.24
2022-12-06T19:08:33.023Z,38.49
2022-12-06T19:11:03.459Z,38.44
2022-12-06T19:13:33.224Z,38.43
2022-12-06T19:16:05.081Z,38.49
2022-12-06T19:18:35.637Z,38.64
2022-12-06T19:21:05.193Z,38.53
2022-12-06T19:23:37.683Z,38.49
2022-12-06T19:26:08.762Z,38.52
2022-12-06T19:28:40.559Z,38.54
2022-12-06T19:31:14.816Z,39.14
2022-12-06T19:33:47.204Z,39.23
2022-12-06T19:36:28.075Z,39.21
2022-12-06T19:39:00.368Z,39.09
2022-12-06T19:41:30.897Z,38.98
2022-12-06T19:44:16.525Z,38.95
2022-12-06T19:46:47.579Z,38.99
2022-12-06T19:49:19.059Z,38.92
2022-12-06T19:51:50.903Z,38.91
2022-12-06T19:54:30.860Z,38.97
2022-12-06T19:57:01.613Z,39.01
2022-12-06T19:59:35.178Z,39.34
2022-12-06T20:02:05.352Z,39.18
2022-12-06T20:04:37.900Z,39.10
2022-12-06T20:07:09.327Z,39.16
2022-12-06T20:09:40.389Z,39.14
2022-12-06T20:12:09.510Z,39.11
2022-12-06T20:14:48.778Z,39.28
2022-12-06T20:17:51.129Z,39.57
2022-12-06T20:20:20.809Z,39.53
2022-12-06T20:22:49.153Z,39.39
2022-12-06T20:25:18.882Z,39.34
2022-12-06T20:27:53.816Z,39.32
2022-12-06T20:30:28.093Z,39.50
2022-12-06T20:32:58.090Z,39.54
2022-12-06T20:35:29.079Z,39.31
2022-12-06T20:37:58.888Z,39.36
2022-12-06T20:40:31.628Z,39.40
2022-12-06T20:43:01.008Z,39.38
2022-12-06T20:45:32.950Z,39.15
2022-12-06T20:48:02.830Z,39.05
2022-12-06T20:50:32.425Z,39.22
2022-12-06T20:53:01.192Z,39.10
2022-12-06T20:55:31.861Z,39.03
2022-12-06T20:58:05.650Z,39.17
2022-12-06T21:00:35.127Z,39.04
2022-12-06T21:03:04.758Z,38.97
2022-12-06T21:05:33.599Z,39.50
2022-12-06T21:08:03.582Z,39.32
2022-12-06T21:10:32.914Z,39.71
2022-12-06T21:13:06.067Z,39.63
2022-12-06T21:15:36.100Z,39.62
2022-12-06T21:18:06.939Z,39.68
2022-12-06T21:20:39.193Z,39.72
2022-12-06T21:23:40.778Z,39.87
2022-12-06T21:26:11.028Z,39.86
2022-12-06T21:28:40.539Z,39.79
2022-12-06T21:31:09.159Z,39.53
2022-12-06T21:33:38.980Z,39.24
2022-12-06T21:36:08.904Z,39.34
2022-12-06T21:38:39.086Z,39.53
2022-12-06T21:41:12.742Z,39.56
2022-12-06T21:43:41.647Z,39.70
2022-12-06T21:46:14.911Z,39.54
2022-12-06T21:48:45.425Z,39.60
2022-12-06T21:51:16.188Z,39.45
2022-12-06T21:53:45.832Z,39.33
2022-12-06T21:56:23.646Z,39.66
2022-12-06T21:58:53.712Z,38.97
2022-12-06T22:01:29.340Z,39.22
2022-12-06T22:04:03.852Z,38.76
2022-12-06T22:06:34.159Z,38.91
2022-12-06T22:09:07.264Z,39.48
2022-12-06T22:11:36.699Z,39.51
2022-12-06T22:14:06.732Z,39.68
2022-12-06T22:16:36.440Z,39.63
2022-12-06T22:19:05.623Z,39.94
2022-12-06T22:21:38.602Z,39.20
2022-12-06T22:24:07.842Z,39.05
2022-12-06T22:26:37.554Z,38.81
2022-12-06T22:29:06.997Z,38.68
2022-12-06T22:31:40.228Z,38.70
2022-12-06T22:34:11.268Z,38.63
2022-12-06T22:36:41.307Z,38.77
2022-12-06T22:39:12.719Z,38.66
2022-12-06T22:41:43.407Z,38.67
2022-12-06T22:44:13.352Z,38.71
2022-12-06T22:46:43.403Z,38.62
2022-12-06T22:49:17.743Z,38.65
2022-12-06T22:51:48.991Z,38.73
2022-12-06T22:54:18.942Z,38.65
2022-12-06T22:56:50.913Z,38.67
2022-12-06T22:59:21.627Z,38.58
2022-12-06T23:01:52.113Z,38.51
2022-12-06T23:04:21.668Z,38.66
2022-12-06T23:06:52.206Z,38.70
2022-12-06T23:09:21.080Z,38.73
2022-12-06T23:11:51.210Z,38.74
2022-12-06T23:14:20.266Z,38.70
2022-12-06T23:16:49.298Z,38.77
2022-12-06T23:19:18.948Z,38.75
2022-12-06T23:21:48.178Z,38.84
2022-12-06T23:24:17.432Z,38.73
2022-12-06T23:26:54.557Z,38.72
2022-12-06T23:29:30.261Z,38.83
2022-12-06T23:31:59.596Z,38.75
2022-12-06T23:34:29.564Z,38.80
2022-12-06T23:37:02.037Z,39.01
2022-12-06T23:39:33.278Z,39.61
2022-12-06T23:42:02.093Z,39.99
2022-12-06T23:44:32.320Z,40.05
2022-12-06T23:47:01.212Z,40.02
2022-12-06T23:49:29.889Z,39.97
2022-12-06T23:51:59.543Z,39.92
2022-12-06T23:54:31.359Z,39.97
2022-12-06T23:57:00.890Z,39.99
2022-12-06T23:59:31.028Z,40.00
